Time;durP1;ratioP1;P1;durP2;ratioP2;P2;SDS_P1;SDS_P2;PMS_P1;PMS_P2;Temp;Humidity;BMP_temperature;BMP_pressure;BME280_temperature;BME280_humidity;BME280_pressure;Samples;Min_cycle;Max_cycle;Signal;HPM_P1;HPM_P2
2023/01/18 00:00:41;;;;;;;9.43;4.77;;;1.50;99.90;;;;;;5052817;28;20408;-72
2023/01/18 00:03:12;;;;;;;16.00;5.70;;;1.50;99.90;;;;;;5060390;28;20190;-74
2023/01/18 00:05:41;;;;;;;12.87;5.17;;;1.50;99.90;;;;;;5035195;28;20184;-74
2023/01/18 00:08:13;;;;;;;7.50;4.47;;;1.50;99.90;;;;;;5057939;28;20211;-74
2023/01/18 00:10:39;;;;;;;9.10;4.57;;;1.50;99.90;;;;;;5057073;28;20301;-74
2023/01/18 00:13:05;;;;;;;8.03;4.33;;;1.50;99.90;;;;;;5046037;28;20341;-74
2023/01/18 00:15:31;;;;;;;6.93;4.53;;;1.50;99.90;;;;;;5058578;28;20242;-74
2023/01/18 00:17:57;;;;;;;8.00;4.87;;;1.40;99.90;;;;;;5035489;28;20269;-74
2023/01/18 00:20:24;;;;;;;12.77;5.03;;;1.50;99.90;;;;;;5037649;28;20211;-73
2023/01/18 00:22:51;;;;;;;8.60;5.10;;;1.50;99.90;;;;;;5032551;28;20292;-73
2023/01/18 00:25:19;;;;;;;10.20;5.13;;;1.50;99.90;;;;;;5058681;28;20233;-72
2023/01/18 00:27:52;;;;;;;11.10;5.40;;;1.50;99.90;;;;;;5056622;28;20233;-72
2023/01/18 00:30:21;;;;;;;12.27;5.60;;;1.50;99.90;;;;;;5032587;28;20180;-74
2023/01/18 00:32:47;;;;;;;11.63;6.10;;;1.50;99.90;;;;;;5056106;28;20211;-74
2023/01/18 00:35:14;;;;;;;14.93;6.17;;;1.50;99.90;;;;;;5058462;28;20207;-74
2023/01/18 00:37:40;;;;;;;11.47;6.77;;;1.50;99.90;;;;;;5056266;28;20214;-72
2023/01/18 00:40:07;;;;;;;13.07;7.40;;;1.50;99.90;;;;;;5056845;28;20211;-74
2023/01/18 00:45:17;;;;;;;16.43;7.60;;;1.50;99.90;;;;;;5055542;28;20191;-74
2023/01/18 00:47:43;;;;;;;15.23;7.40;;;1.50;99.90;;;;;;5056613;28;20253;-73
2023/01/18 00:50:09;;;;;;;17.37;7.83;;;1.50;99.90;;;;;;5057734;28;20301;-74
2023/01/18 00:52:35;;;;;;;16.50;7.50;;;1.50;99.90;;;;;;5055830;28;20219;-73
2023/01/18 00:55:02;;;;;;;19.57;8.00;;;1.50;99.90;;;;;;5056282;28;20202;-74
2023/01/18 00:57:28;;;;;;;17.60;7.70;;;1.50;99.90;;;;;;5036667;28;20285;-73
2023/01/18 00:59:53;;;;;;;15.27;8.40;;;1.50;99.90;;;;;;5053434;28;21963;-74
2023/01/18 01:02:19;;;;;;;20.33;8.60;;;1.40;99.90;;;;;;5058470;28;20253;-75
2023/01/18 01:07:29;;;;;;;16.90;8.37;;;1.40;99.90;;;;;;5053039;28;20263;-73
2023/01/18 01:09:56;;;;;;;14.87;9.17;;;1.40;99.90;;;;;;5056691;28;20216;-72
2023/01/18 01:26:11;;;;;;;17.30;8.57;;;1.40;99.90;;;;;;5092098;22;20244;-76
2023/01/18 01:28:38;;;;;;;15.60;8.10;;;1.40;99.90;;;;;;5071641;28;20341;-74
2023/01/18 01:31:06;;;;;;;25.97;12.73;;;1.50;99.90;;;;;;5071449;28;20851;-77
2023/01/18 01:33:33;;;;;;;22.67;9.80;;;1.40;99.90;;;;;;5075754;28;20206;-77
2023/01/18 01:36:02;;;;;;;19.20;9.30;;;1.40;99.90;;;;;;5075195;28;20676;-77
2023/01/18 01:38:29;;;;;;;22.00;8.77;;;1.50;99.90;;;;;;5074888;28;20215;-73
2023/01/18 01:41:25;;;;;;;16.47;9.00;;;1.50;99.90;;;;;;5073479;28;20214;-76
2023/01/18 01:44:03;;;;;;;20.67;8.77;;;1.50;99.90;;;;;;5066250;28;20234;-78
2023/01/18 01:46:38;;;;;;;19.20;8.37;;;1.50;99.90;;;;;;5073199;28;20216;-76
2023/01/18 01:49:07;;;;;;;14.97;7.90;;;1.50;99.90;;;;;;5063047;28;20222;-78
2023/01/18 01:51:34;;;;;;;14.80;7.80;;;1.60;99.90;;;;;;5072441;28;20222;-76
2023/01/18 01:54:04;;;;;;;15.63;7.70;;;1.60;99.90;;;;;;5072141;28;20201;-76
2023/01/18 01:56:31;;;;;;;18.10;8.00;;;1.60;99.90;;;;;;5069988;28;20724;-76
2023/01/18 01:58:59;;;;;;;19.00;8.77;;;1.60;99.90;;;;;;5073421;28;20207;-76
2023/01/18 02:01:27;;;;;;;13.87;7.40;;;1.60;99.90;;;;;;5073295;28;20770;-77
2023/01/18 02:03:56;;;;;;;17.27;7.97;;;1.60;99.90;;;;;;5064475;28;20215;-76
2023/01/18 02:06:30;;;;;;;18.37;8.73;;;1.60;99.90;;;;;;5072722;28;20223;-77
2023/01/18 02:09:15;;;;;;;15.07;8.07;;;1.60;99.90;;;;;;5072725;28;20277;-76
2023/01/18 02:11:41;;;;;;;13.83;7.57;;;1.60;99.90;;;;;;5072103;28;20218;-76
2023/01/18 02:14:11;;;;;;;16.00;7.97;;;1.60;99.90;;;;;;5070168;28;20627;-76
2023/01/18 02:16:42;;;;;;;16.53;7.73;;;1.60;99.90;;;;;;5070987;28;20338;-77
2023/01/18 02:19:50;;;;;;;13.63;7.73;;;1.60;99.90;;;;;;5073236;28;20218;-76
2023/01/18 02:22:50;;;;;;;16.23;8.10;;;1.60;99.90;;;;;;5086622;28;20221;-77
2023/01/18 02:25:50;;;;;;;16.23;7.47;;;1.60;99.90;;;;;;5048178;28;20239;-76
2023/01/18 02:28:17;;;;;;;19.03;8.13;;;1.60;99.90;;;;;;5070193;28;20689;-77
2023/01/18 02:30:57;;;;;;;13.17;7.00;;;1.60;99.90;;;;;;5072982;28;20227;-76
2023/01/18 02:33:25;;;;;;;18.23;7.40;;;1.60;99.90;;;;;;5074665;28;20237;-76
2023/01/18 02:35:58;;;;;;;13.63;8.27;;;1.70;99.90;;;;;;5075582;28;20221;-75
2023/01/18 02:38:35;;;;;;;13.47;7.73;;;1.70;99.90;;;;;;5070166;28;20291;-76
2023/01/18 02:46:29;;;;;;;14.10;7.73;;;1.70;99.90;;;;;;5073307;28;20221;-77
2023/01/18 02:47:06;;;;;;;13.67;8.33;;;1.70;99.90;;;;;;5072794;28;20693;-77
2023/01/18 02:49:32;;;;;;;19.90;9.67;;;1.60;99.90;;;;;;5072571;28;20596;-77
2023/01/18 02:52:06;;;;;;;16.33;8.70;;;1.60;99.90;;;;;;5070978;28;20223;-75
2023/01/18 02:54:35;;;;;;;16.97;9.00;;;1.60;99.90;;;;;;5072720;28;20210;-77
2023/01/18 02:57:06;;;;;;;15.97;8.83;;;1.60;99.90;;;;;;5071817;28;20279;-75
2023/01/18 02:59:41;;;;;;;16.37;9.23;;;1.60;99.90;;;;;;5073172;28;20179;-76
2023/01/18 03:02:12;;;;;;;17.50;9.10;;;1.50;99.90;;;;;;5060363;28;20215;-76
2023/01/18 03:04:52;;;;;;;18.10;9.30;;;1.50;99.90;;;;;;5071068;28;20217;-74
2023/01/18 03:07:31;;;;;;;16.70;9.13;;;1.60;99.90;;;;;;5062657;28;20636;-75
2023/01/18 03:10:00;;;;;;;16.20;8.07;;;1.50;99.90;;;;;;5071370;28;20217;-76
2023/01/18 03:12:44;;;;;;;21.57;9.17;;;1.50;99.90;;;;;;5067489;28;20707;-77
2023/01/18 03:15:19;;;;;;;14.80;8.50;;;1.50;99.90;;;;;;5061262;28;20739;-76
2023/01/18 03:17:51;;;;;;;13.00;8.33;;;1.60;99.90;;;;;;5065902;28;20179;-76
2023/01/18 03:20:24;;;;;;;14.63;8.70;;;1.60;99.90;;;;;;5066905;28;20211;-74
2023/01/18 03:25:56;;;;;;;17.87;9.10;;;1.60;99.90;;;;;;5068716;28;20355;-74
2023/01/18 03:34:27;;;;;;;16.57;8.87;;;1.60;99.90;;;;;;5060467;28;20595;-77
2023/01/18 03:36:54;;;;;;;16.83;8.47;;;1.60;99.90;;;;;;5063679;28;20211;-76
2023/01/18 03:39:27;;;;;;;16.17;8.93;;;1.60;99.90;;;;;;5065081;28;20276;-76
2023/01/18 03:42:10;;;;;;;16.23;9.00;;;1.60;99.90;;;;;;5076811;28;20278;-77
2023/01/18 03:44:43;;;;;;;16.13;9.03;;;1.70;99.90;;;;;;5061126;28;20637;-76
2023/01/18 03:47:09;;;;;;;16.30;8.83;;;1.70;99.90;;;;;;5068531;28;20302;-76
2023/01/18 03:49:35;;;;;;;18.67;8.47;;;1.60;99.90;;;;;;5068281;28;20294;-74
2023/01/18 03:52:09;;;;;;;17.17;8.57;;;1.60;99.90;;;;;;5064457;28;20296;-76
2023/01/18 03:54:42;;;;;;;20.80;8.70;;;1.60;99.90;;;;;;5071462;28;20218;-76
2023/01/18 03:57:20;;;;;;;18.67;9.60;;;1.60;99.90;;;;;;5072526;28;20768;-77
2023/01/18 03:59:46;;;;;;;17.10;8.37;;;1.70;99.90;;;;;;5078094;28;20185;-74
2023/01/18 04:02:12;;;;;;;16.53;7.90;;;1.70;99.90;;;;;;5074838;28;20696;-75
2023/01/18 04:04:38;;;;;;;14.07;8.20;;;1.70;99.90;;;;;;5076979;28;20261;-74
2023/01/18 04:07:04;;;;;;;14.67;8.10;;;1.70;99.90;;;;;;5074731;28;20219;-76
2023/01/18 04:09:29;;;;;;;14.87;9.13;;;1.80;99.90;;;;;;5079165;28;20219;-76
2023/01/18 04:11:55;;;;;;;17.83;9.67;;;1.70;99.90;;;;;;5077391;28;20294;-76
2023/01/18 04:14:21;;;;;;;16.60;8.67;;;1.70;99.90;;;;;;5069811;28;20210;-74
2023/01/18 04:16:46;;;;;;;13.70;8.40;;;1.70;99.90;;;;;;5064266;28;20211;-77
2023/01/18 04:19:12;;;;;;;15.10;7.93;;;1.70;99.90;;;;;;5085652;28;20762;-76
2023/01/18 04:21:37;;;;;;;12.87;7.67;;;1.80;99.90;;;;;;5073182;28;20214;-75
2023/01/18 04:24:04;;;;;;;14.80;7.27;;;1.80;99.90;;;;;;5073575;28;20183;-76
2023/01/18 04:26:29;;;;;;;15.30;8.57;;;1.70;99.90;;;;;;5069867;28;20245;-76
2023/01/18 04:28:55;;;;;;;14.30;7.77;;;1.70;99.90;;;;;;5066990;28;20231;-75
2023/01/18 04:31:21;;;;;;;14.80;7.20;;;1.70;99.90;;;;;;5076118;28;20716;-75
2023/01/18 04:33:50;;;;;;;12.47;7.43;;;1.70;99.90;;;;;;5074442;28;20648;-73
2023/01/18 04:36:16;;;;;;;13.10;8.20;;;1.70;99.90;;;;;;5080695;28;20195;-72
2023/01/18 04:38:42;;;;;;;13.17;6.57;;;1.80;99.90;;;;;;5066947;28;20229;-73
2023/01/18 04:41:08;;;;;;;12.97;6.27;;;1.80;99.90;;;;;;5063493;28;20211;-76
2023/01/18 04:43:33;;;;;;;17.30;7.97;;;1.80;99.90;;;;;;5065980;28;20689;-76
2023/01/18 04:45:59;;;;;;;13.00;6.83;;;1.80;99.90;;;;;;5064471;28;20616;-75
2023/01/18 04:48:25;;;;;;;12.23;7.60;;;1.70;99.90;;;;;;5061886;28;20219;-76
2023/01/18 04:50:51;;;;;;;12.57;8.07;;;1.80;99.90;;;;;;5064472;28;20186;-74
2023/01/18 04:53:16;;;;;;;13.80;8.33;;;1.80;99.90;;;;;;5065691;28;20215;-76
2023/01/18 04:55:43;;;;;;;19.97;8.23;;;1.80;99.90;;;;;;5063529;28;20217;-75
2023/01/18 04:58:09;;;;;;;16.90;8.67;;;1.80;99.90;;;;;;5061775;28;20646;-77
2023/01/18 05:00:38;;;;;;;16.17;9.40;;;1.70;99.90;;;;;;5064440;28;20485;-76
2023/01/18 05:03:07;;;;;;;17.37;8.40;;;1.70;99.90;;;;;;5062322;28;20197;-77
2023/01/18 05:05:33;;;;;;;14.13;8.43;;;1.60;99.90;;;;;;5067577;28;20209;-76
2023/01/18 05:07:58;;;;;;;16.33;8.43;;;1.60;99.90;;;;;;5058131;28;20211;-76
2023/01/18 05:10:24;;;;;;;14.73;8.87;;;1.60;99.90;;;;;;5075429;28;20215;-76
2023/01/18 05:12:50;;;;;;;14.50;8.30;;;1.60;99.90;;;;;;5065898;28;20222;-73
2023/01/18 05:15:17;;;;;;;13.77;8.07;;;1.60;99.90;;;;;;5063318;28;20200;-76
2023/01/18 05:17:42;;;;;;;14.37;8.00;;;1.60;99.90;;;;;;5066182;28;20178;-75
2023/01/18 05:20:10;;;;;;;17.10;7.40;;;1.50;99.90;;;;;;5059884;28;20389;-77
2023/01/18 05:22:36;;;;;;;15.23;8.03;;;1.50;99.90;;;;;;5076207;28;20222;-76
2023/01/18 05:25:03;;;;;;;10.57;7.27;;;1.60;99.90;;;;;;5063514;28;20218;-76
2023/01/18 05:27:29;;;;;;;10.63;6.57;;;1.70;99.90;;;;;;5060074;28;20221;-73
2023/01/18 05:29:55;;;;;;;13.67;7.63;;;1.70;99.90;;;;;;5063848;28;20241;-76
2023/01/18 05:32:20;;;;;;;10.60;7.23;;;1.70;99.90;;;;;;5067101;28;20218;-76
2023/01/18 05:34:46;;;;;;;15.87;8.07;;;1.70;99.90;;;;;;5067035;28;20217;-77
2023/01/18 05:37:12;;;;;;;11.20;7.80;;;1.70;99.90;;;;;;5062781;28;20219;-76
2023/01/18 05:39:37;;;;;;;11.50;7.33;;;1.70;99.90;;;;;;5067819;28;20266;-76
2023/01/18 05:42:04;;;;;;;16.13;8.70;;;1.70;99.90;;;;;;5060166;28;20179;-75
2023/01/18 05:44:30;;;;;;;15.47;8.23;;;1.70;99.90;;;;;;5065009;28;20182;-73
2023/01/18 05:46:57;;;;;;;12.90;8.37;;;1.70;99.90;;;;;;5066665;28;20211;-76
2023/01/18 05:49:22;;;;;;;15.57;8.43;;;1.60;99.90;;;;;;5068501;28;20211;-75
2023/01/18 05:51:48;;;;;;;16.37;8.90;;;1.60;99.90;;;;;;5067153;28;20221;-75
2023/01/18 05:54:13;;;;;;;15.63;8.23;;;1.60;99.90;;;;;;5067916;28;20171;-75
2023/01/18 05:56:39;;;;;;;15.20;8.03;;;1.60;99.90;;;;;;5068854;28;20244;-74
2023/01/18 05:59:05;;;;;;;16.47;8.30;;;1.50;99.90;;;;;;5066791;28;20282;-76
2023/01/18 06:01:30;;;;;;;14.13;8.13;;;1.60;99.90;;;;;;5067252;28;20207;-76
2023/01/18 06:03:56;;;;;;;16.60;8.83;;;1.60;99.90;;;;;;5068704;28;20203;-76
2023/01/18 06:06:22;;;;;;;13.93;8.40;;;1.60;99.90;;;;;;5062848;28;20643;-78
2023/01/18 06:08:47;;;;;;;16.47;8.80;;;1.50;99.90;;;;;;5069009;28;20195;-76
2023/01/18 06:11:13;;;;;;;11.47;7.67;;;1.50;99.90;;;;;;5066664;28;20206;-77
2023/01/18 06:13:38;;;;;;;16.60;8.43;;;1.50;99.90;;;;;;5068223;28;20215;-75
2023/01/18 06:16:05;;;;;;;17.53;8.23;;;1.50;99.90;;;;;;5066649;28;20230;-77
2023/01/18 06:18:31;;;;;;;13.17;7.50;;;1.40;99.90;;;;;;5066225;28;20234;-76
2023/01/18 06:20:59;;;;;;;15.67;8.13;;;1.40;99.90;;;;;;5070262;28;20913;-76
2023/01/18 06:23:25;;;;;;;14.63;7.40;;;1.40;99.90;;;;;;5070744;28;20570;-76
2023/01/18 06:25:51;;;;;;;8.70;6.37;;;1.50;99.90;;;;;;5069790;28;20229;-76
2023/01/18 06:28:18;;;;;;;14.57;7.60;;;1.50;99.90;;;;;;5071290;28;20285;-76
2023/01/18 06:30:46;;;;;;;15.83;6.70;;;1.50;99.90;;;;;;5069800;28;20243;-77
2023/01/18 06:33:13;;;;;;;13.73;7.53;;;1.60;99.90;;;;;;5073641;28;20202;-76
2023/01/18 06:35:40;;;;;;;11.03;6.73;;;1.60;99.90;;;;;;5085263;28;20206;-78
2023/01/18 06:38:06;;;;;;;9.37;6.73;;;1.70;99.90;;;;;;5069606;28;20348;-77
2023/01/18 06:40:31;;;;;;;14.03;7.60;;;1.70;99.90;;;;;;5072417;28;20222;-78
2023/01/18 06:42:57;;;;;;;12.30;7.37;;;1.70;99.90;;;;;;5066064;28;20305;-76
2023/01/18 06:45:24;;;;;;;11.70;6.23;;;1.70;99.90;;;;;;5070274;28;20958;-77
2023/01/18 06:47:50;;;;;;;13.83;6.93;;;1.80;99.90;;;;;;5067457;28;20187;-77
2023/01/18 06:50:17;;;;;;;8.57;6.03;;;1.80;99.90;;;;;;5070914;28;20557;-77
2023/01/18 06:52:43;;;;;;;14.80;6.77;;;1.80;99.90;;;;;;5068898;28;20234;-76
2023/01/18 06:55:10;;;;;;;14.80;6.43;;;1.80;99.90;;;;;;5070889;28;20210;-76
2023/01/18 06:57:35;;;;;;;13.03;6.13;;;1.80;99.90;;;;;;5063637;28;20222;-78
2023/01/18 07:00:04;;;;;;;11.27;5.83;;;1.80;99.90;;;;;;5071559;28;20167;-78
2023/01/18 07:02:31;;;;;;;13.30;5.90;;;1.80;99.90;;;;;;5071763;28;20182;-76
2023/01/18 07:04:57;;;;;;;9.93;5.73;;;1.70;99.90;;;;;;5065728;28;20555;-76
2023/01/18 07:07:22;;;;;;;10.60;5.20;;;1.70;99.90;;;;;;5067836;28;20207;-77
2023/01/18 07:09:48;;;;;;;10.10;5.47;;;1.70;99.90;;;;;;5070166;28;20207;-76
2023/01/18 07:12:14;;;;;;;13.07;5.03;;;1.70;99.90;;;;;;5069133;28;20210;-77
2023/01/18 07:14:39;;;;;;;10.33;4.67;;;1.80;99.90;;;;;;5071253;28;20684;-77
2023/01/18 07:17:05;;;;;;;12.23;4.77;;;1.80;99.90;;;;;;5070547;28;20298;-78
2023/01/18 07:19:31;;;;;;;8.13;4.73;;;1.80;99.90;;;;;;5070790;28;20207;-74
2023/01/18 07:21:57;;;;;;;7.53;4.93;;;1.80;99.90;;;;;;5070091;28;20218;-76
2023/01/18 07:24:23;;;;;;;10.43;4.93;;;1.80;99.90;;;;;;5065611;28;20218;-77
2023/01/18 07:26:51;;;;;;;9.90;4.77;;;1.80;99.90;;;;;;5080996;22;20307;-74
2023/01/18 07:29:17;;;;;;;8.90;5.10;;;1.90;99.90;;;;;;5070951;28;20680;-74
2023/01/18 07:31:43;;;;;;;10.63;5.33;;;1.90;99.90;;;;;;5064975;28;20222;-73
2023/01/18 07:34:12;;;;;;;8.80;4.37;;;1.90;99.90;;;;;;5062804;28;20214;-74
2023/01/18 07:36:38;;;;;;;7.80;4.33;;;1.90;99.90;;;;;;5046137;28;20211;-71
2023/01/18 07:39:05;;;;;;;7.30;4.47;;;1.90;99.90;;;;;;5031178;28;20180;-73
2023/01/18 07:41:31;;;;;;;10.20;4.67;;;2.00;99.90;;;;;;5049940;28;20580;-74
2023/01/18 07:43:56;;;;;;;7.37;3.10;;;2.00;99.90;;;;;;5033759;28;20207;-73
2023/01/18 07:46:24;;;;;;;7.77;3.47;;;2.00;99.90;;;;;;5049116;28;20207;-73
2023/01/18 07:48:51;;;;;;;7.10;3.47;;;2.00;99.90;;;;;;5045113;28;20265;-73
2023/01/18 07:51:18;;;;;;;8.13;3.30;;;2.00;99.90;;;;;;5048740;28;20669;-72
2023/01/18 07:53:44;;;;;;;7.23;3.50;;;2.00;99.90;;;;;;5049204;28;20190;-73
2023/01/18 07:56:16;;;;;;;9.77;3.47;;;2.00;99.90;;;;;;5048870;28;20727;-74
2023/01/18 07:58:42;;;;;;;8.07;3.77;;;2.10;99.90;;;;;;5031104;28;20211;-70
2023/01/18 08:01:13;;;;;;;8.97;3.07;;;2.20;99.90;;;;;;5050254;28;20219;-74
2023/01/18 08:03:41;;;;;;;5.37;2.90;;;2.20;99.90;;;;;;5030673;28;20224;-73
2023/01/18 08:06:08;;;;;;;5.23;3.23;;;2.20;99.90;;;;;;5048009;28;20199;-74
2023/01/18 08:08:35;;;;;;;7.67;2.90;;;2.20;99.90;;;;;;5047725;28;20191;-73
2023/01/18 08:11:03;;;;;;;4.87;3.17;;;2.30;99.90;;;;;;5048172;28;20657;-71
2023/01/18 08:13:29;;;;;;;9.07;3.23;;;2.30;99.90;;;;;;5044734;28;20392;-73
2023/01/18 08:15:57;;;;;;;5.57;3.30;;;2.30;99.90;;;;;;5048190;28;20433;-74
2023/01/18 08:18:22;;;;;;;5.07;2.90;;;2.40;99.90;;;;;;5048259;28;20256;-74
2023/01/18 08:20:48;;;;;;;9.20;3.50;;;2.50;99.90;;;;;;5048981;28;20214;-72
2023/01/18 08:23:15;;;;;;;4.50;2.93;;;2.60;99.90;;;;;;5048100;28;20753;-74
2023/01/18 08:25:41;;;;;;;8.67;3.07;;;2.60;99.90;;;;;;5030265;28;20239;-74
2023/01/18 08:28:08;;;;;;;8.53;3.20;;;2.70;99.90;;;;;;5048226;28;20231;-73
2023/01/18 08:30:39;;;;;;;5.63;2.77;;;2.70;99.90;;;;;;5048317;28;20781;-74
2023/01/18 08:33:06;;;;;;;9.27;3.13;;;2.70;99.90;;;;;;5045375;28;20211;-74
2023/01/18 08:35:38;;;;;;;6.17;3.60;;;2.80;99.90;;;;;;5030892;28;20664;-74
2023/01/18 08:38:03;;;;;;;7.67;3.17;;;2.90;99.90;;;;;;5047986;28;20237;-73
2023/01/18 08:40:29;;;;;;;7.70;3.50;;;3.00;99.90;;;;;;5029853;28;20202;-75
2023/01/18 08:43:00;;;;;;;10.50;3.90;;;3.00;99.90;;;;;;5028911;28;20204;-74
2023/01/18 08:45:26;;;;;;;6.60;2.97;;;3.00;99.90;;;;;;5046335;28;20205;-74
2023/01/18 08:48:03;;;;;;;9.90;3.60;;;3.10;99.90;;;;;;5030242;28;20233;-74
2023/01/18 08:50:31;;;;;;;7.50;3.17;;;3.10;99.90;;;;;;5045988;28;21089;-74
2023/01/18 08:52:58;;;;;;;8.70;3.23;;;3.20;99.90;;;;;;5047630;28;20241;-73
2023/01/18 08:55:25;;;;;;;10.03;3.63;;;3.30;99.90;;;;;;5046786;28;20207;-74
2023/01/18 08:57:56;;;;;;;7.20;3.93;;;3.30;99.90;;;;;;5047794;28;20211;-73
2023/01/18 09:00:23;;;;;;;6.87;4.27;;;3.20;99.90;;;;;;5047734;28;20212;-74
2023/01/18 09:02:48;;;;;;;6.93;3.70;;;3.30;99.90;;;;;;5048328;28;20184;-74
2023/01/18 09:05:14;;;;;;;12.67;4.23;;;3.30;99.90;;;;;;5046831;28;20214;-74
2023/01/18 09:07:40;;;;;;;9.67;3.60;;;3.30;99.90;;;;;;5047597;28;20626;-74
2023/01/18 09:10:07;;;;;;;10.47;4.40;;;3.30;99.90;;;;;;5047466;28;20212;-74
2023/01/18 09:12:34;;;;;;;10.67;4.00;;;3.30;99.90;;;;;;5043579;28;20211;-74
2023/01/18 09:14:59;;;;;;;11.70;4.13;;;3.30;99.90;;;;;;5047994;28;20255;-74
2023/01/18 09:17:25;;;;;;;7.47;4.07;;;3.40;99.90;;;;;;5048211;28;20327;-74
2023/01/18 09:19:53;;;;;;;8.80;4.07;;;3.40;99.90;;;;;;5047586;28;20209;-74
2023/01/18 09:22:19;;;;;;;10.07;4.57;;;3.40;99.90;;;;;;5047323;28;20771;-73
2023/01/18 09:24:44;;;;;;;11.20;4.63;;;3.50;99.90;;;;;;5047465;28;20207;-73
2023/01/18 09:27:10;;;;;;;9.37;4.13;;;3.60;99.90;;;;;;5038244;28;20237;-73
2023/01/18 09:29:36;;;;;;;8.63;4.17;;;3.70;99.90;;;;;;5048007;28;20706;-73
2023/01/18 09:32:01;;;;;;;7.30;3.67;;;3.70;99.90;;;;;;5047362;28;20305;-73
2023/01/18 09:34:27;;;;;;;8.33;4.13;;;3.70;99.90;;;;;;5048056;28;20211;-73
2023/01/18 09:36:53;;;;;;;10.73;4.43;;;3.80;99.90;;;;;;5047389;28;20765;-73
2023/01/18 09:39:20;;;;;;;8.93;4.90;;;3.70;99.90;;;;;;5029333;28;20655;-73
2023/01/18 09:41:55;;;;;;;7.90;4.43;;;3.70;99.90;;;;;;5047693;28;20528;-73
2023/01/18 09:44:30;;;;;;;11.80;4.03;;;3.80;99.90;;;;;;5028095;28;20284;-73
2023/01/18 09:47:20;;;;;;;10.67;4.20;;;3.80;99.90;;;;;;5029324;28;20214;-72
2023/01/18 09:50:01;;;;;;;8.80;4.73;;;3.90;99.90;;;;;;5028527;28;20236;-73
2023/01/18 09:52:51;;;;;;;7.10;4.20;;;4.00;99.90;;;;;;5029150;28;20305;-74
2023/01/18 09:55:26;;;;;;;9.87;4.20;;;4.10;99.90;;;;;;5049364;28;20206;-73
2023/01/18 09:58:13;;;;;;;8.33;3.77;;;4.10;99.90;;;;;;5048344;28;20226;-74
2023/01/18 10:00:47;;;;;;;6.53;3.47;;;4.00;99.90;;;;;;5028248;28;20238;-74
2023/01/18 10:03:17;;;;;;;9.53;3.80;;;4.10;99.90;;;;;;5050881;28;20296;-73
2023/01/18 10:06:17;;;;;;;9.03;3.43;;;4.10;99.90;;;;;;5047931;28;20193;-71
2023/01/18 10:09:03;;;;;;;7.47;3.50;;;4.20;99.90;;;;;;5048832;28;20214;-71
2023/01/18 10:11:37;;;;;;;7.97;3.83;;;4.30;99.90;;;;;;5051071;28;20217;-74
2023/01/18 10:14:27;;;;;;;8.70;3.60;;;4.50;99.90;;;;;;5047252;28;20285;-74
2023/01/18 10:16:56;;;;;;;9.13;3.80;;;4.60;99.90;;;;;;5047173;28;20218;-74
2023/01/18 10:19:27;;;;;;;10.37;3.83;;;4.50;99.90;;;;;;5050858;28;20559;-73
2023/01/18 10:22:11;;;;;;;9.60;4.23;;;4.40;99.90;;;;;;5051461;28;20222;-73
2023/01/18 10:25:08;;;;;;;9.53;4.53;;;4.40;99.90;;;;;;5049220;28;20221;-74
2023/01/18 10:27:56;;;;;;;7.70;4.13;;;4.50;99.90;;;;;;5008880;28;20235;-72
2023/01/18 10:30:37;;;;;;;8.87;4.33;;;4.60;99.90;;;;;;5049600;28;20237;-72
2023/01/18 10:33:33;;;;;;;12.33;4.10;;;4.70;99.90;;;;;;5032535;28;20687;-72
2023/01/18 10:36:09;;;;;;;12.60;4.23;;;4.90;99.90;;;;;;5050129;28;20574;-74
2023/01/18 10:38:36;;;;;;;8.20;5.37;;;5.00;99.90;;;;;;5025846;28;20692;-73
2023/01/18 10:41:02;;;;;;;9.33;4.53;;;5.00;99.90;;;;;;5032351;28;20214;-74
2023/01/18 10:43:30;;;;;;;10.40;5.10;;;4.90;99.90;;;;;;5047997;28;20211;-74
2023/01/18 10:45:56;;;;;;;7.50;4.73;;;4.80;99.90;;;;;;5050411;28;20226;-74
2023/01/18 10:48:31;;;;;;;6.60;4.33;;;4.80;99.90;;;;;;5050265;28;20210;-73
2023/01/18 10:51:00;;;;;;;9.77;4.30;;;4.60;99.90;;;;;;5046720;28;20557;-72
2023/01/18 10:53:32;;;;;;;12.33;4.50;;;4.40;99.90;;;;;;5050177;28;20250;-73
2023/01/18 10:56:06;;;;;;;7.30;4.37;;;4.30;99.90;;;;;;5044522;28;20213;-74
2023/01/18 10:58:37;;;;;;;14.10;5.90;;;4.30;99.90;;;;;;5050002;28;20206;-74
2023/01/18 11:01:03;;;;;;;9.87;5.00;;;4.30;99.90;;;;;;5049988;28;20244;-74
2023/01/18 11:03:42;;;;;;;8.03;4.00;;;4.30;99.90;;;;;;5031710;28;20728;-73
2023/01/18 11:06:08;;;;;;;14.40;5.20;;;4.20;99.90;;;;;;5048673;28;20210;-74
2023/01/18 11:08:34;;;;;;;13.57;5.00;;;4.20;99.90;;;;;;5050087;28;20246;-75
2023/01/18 11:11:15;;;;;;;7.40;4.50;;;4.20;99.90;;;;;;5050218;28;20213;-71
2023/01/18 11:13:42;;;;;;;10.00;4.43;;;4.10;99.90;;;;;;5029795;28;20664;-72
2023/01/18 11:16:21;;;;;;;8.87;4.50;;;4.20;99.90;;;;;;5031426;28;20238;-72
2023/01/18 11:18:55;;;;;;;9.33;4.37;;;4.20;99.90;;;;;;5046401;28;20261;-75
2023/01/18 11:21:21;;;;;;;10.67;5.27;;;4.10;99.90;;;;;;5032034;28;20219;-73
2023/01/18 11:23:48;;;;;;;15.27;5.33;;;4.10;99.90;;;;;;5050082;28;20171;-73
2023/01/18 11:26:20;;;;;;;11.87;6.23;;;4.00;99.90;;;;;;5048812;28;20636;-74
2023/01/18 11:28:54;;;;;;;12.17;5.53;;;4.10;99.90;;;;;;5048210;28;20210;-73
2023/01/18 11:31:29;;;;;;;9.57;5.10;;;4.10;99.90;;;;;;5047078;28;20633;-73
2023/01/18 11:33:59;;;;;;;9.17;4.57;;;4.10;99.90;;;;;;5031747;28;20283;-73
2023/01/18 11:36:36;;;;;;;9.70;4.83;;;4.00;99.90;;;;;;5029824;28;20646;-73
2023/01/18 11:39:21;;;;;;;7.37;4.57;;;4.10;99.90;;;;;;5049358;28;20226;-74
2023/01/18 11:41:47;;;;;;;7.13;3.90;;;4.00;99.90;;;;;;5049635;28;20179;-74
2023/01/18 11:44:33;;;;;;;10.57;4.83;;;4.10;99.90;;;;;;5046608;28;20206;-74
2023/01/18 11:47:02;;;;;;;10.70;4.60;;;4.10;99.90;;;;;;5047551;28;20243;-73
2023/01/18 11:49:44;;;;;;;9.63;4.30;;;4.20;99.90;;;;;;5030728;28;20693;-74
2023/01/18 11:52:33;;;;;;;11.33;4.47;;;4.20;99.90;;;;;;5049023;28;20232;-74
2023/01/18 11:55:08;;;;;;;12.37;4.60;;;4.20;99.90;;;;;;5027405;28;20229;-74
2023/01/18 11:57:35;;;;;;;7.50;4.67;;;4.20;99.90;;;;;;5048908;28;20291;-72
2023/01/18 12:00:03;;;;;;;11.43;4.33;;;4.20;99.90;;;;;;5031092;28;20190;-74
2023/01/18 12:02:54;;;;;;;15.27;5.80;;;4.20;99.90;;;;;;5031047;28;20190;-74
2023/01/18 12:05:44;;;;;;;6.93;4.73;;;4.30;99.90;;;;;;5046057;28;20221;-75
2023/01/18 12:08:16;;;;;;;11.67;5.30;;;4.20;99.90;;;;;;5027161;28;20214;-74
2023/01/18 12:11:03;;;;;;;11.33;5.03;;;4.10;99.90;;;;;;5028938;28;20246;-73
2023/01/18 12:13:38;;;;;;;9.73;5.70;;;4.00;99.90;;;;;;5043349;28;20254;-74
2023/01/18 12:16:08;;;;;;;11.30;5.63;;;4.10;99.90;;;;;;5044931;28;20783;-74
2023/01/18 12:18:56;;;;;;;11.43;5.70;;;4.00;99.90;;;;;;5048326;28;20229;-74
2023/01/18 12:21:24;;;;;;;10.80;5.70;;;4.00;99.90;;;;;;5046334;28;20271;-74
2023/01/18 12:24:14;;;;;;;12.40;4.97;;;4.00;99.90;;;;;;5049072;28;20188;-74
2023/01/18 12:27:00;;;;;;;9.00;4.53;;;4.00;99.90;;;;;;5030201;28;20312;-72
2023/01/18 12:29:30;;;;;;;9.97;5.30;;;4.00;99.90;;;;;;5030709;28;20246;-75
2023/01/18 12:32:19;;;;;;;7.87;4.93;;;4.00;99.90;;;;;;5030512;28;20276;-72
2023/01/18 12:35:19;;;;;;;6.73;4.90;;;4.00;99.90;;;;;;5047477;28;20571;-73
2023/01/18 12:37:54;;;;;;;9.30;5.17;;;4.00;99.90;;;;;;5038319;28;20291;-73
2023/01/18 12:40:25;;;;;;;9.07;5.10;;;4.00;99.90;;;;;;5045182;28;20251;-73
2023/01/18 12:43:10;;;;;;;9.43;5.20;;;3.80;99.90;;;;;;5029914;28;20203;-72
2023/01/18 12:46:09;;;;;;;11.77;4.93;;;3.80;99.90;;;;;;5047222;28;20217;-74
2023/01/18 12:48:51;;;;;;;10.17;5.07;;;3.80;99.90;;;;;;5048185;28;20210;-73
2023/01/18 12:51:21;;;;;;;9.73;4.70;;;3.90;99.90;;;;;;5030166;28;20181;-74
2023/01/18 12:53:57;;;;;;;12.03;4.53;;;3.90;99.90;;;;;;5045138;28;20588;-73
2023/01/18 12:56:44;;;;;;;9.30;4.70;;;3.90;99.90;;;;;;5047387;28;20214;-73
2023/01/18 12:59:27;;;;;;;9.03;5.47;;;3.80;99.90;;;;;;5046592;28;20631;-74
2023/01/18 13:02:17;;;;;;;11.80;5.53;;;3.90;99.90;;;;;;5047871;28;20233;-74
2023/01/18 13:05:22;;;;;;;9.60;4.90;;;3.90;99.90;;;;;;5046311;28;20293;-72
2023/01/18 13:07:55;;;;;;;10.10;4.60;;;3.80;99.90;;;;;;5013524;28;20719;-74
2023/01/18 13:10:24;;;;;;;9.60;5.67;;;3.60;99.90;;;;;;5047626;28;20276;-73
2023/01/18 13:12:52;;;;;;;8.50;5.20;;;3.70;99.90;;;;;;5040403;28;20222;-73
2023/01/18 13:15:22;;;;;;;11.53;4.90;;;3.80;99.90;;;;;;5029499;28;20181;-73
2023/01/18 13:18:09;;;;;;;11.47;4.77;;;3.80;99.90;;;;;;5030001;28;20213;-74
2023/01/18 13:21:05;;;;;;;17.90;8.43;;;3.80;99.90;;;;;;5029220;28;20659;-73
2023/01/18 13:23:43;;;;;;;14.03;6.23;;;3.80;99.90;;;;;;5027577;28;20225;-74
2023/01/18 13:26:25;;;;;;;11.00;5.47;;;3.70;99.90;;;;;;5047507;28;20778;-74
2023/01/18 13:29:16;;;;;;;13.33;6.87;;;3.70;99.90;;;;;;5054809;23;20251;-76
2023/01/18 13:31:42;;;;;;;11.33;6.17;;;3.70;99.90;;;;;;5051386;28;20261;-76
2023/01/18 13:34:32;;;;;;;11.03;5.90;;;3.60;99.90;;;;;;5053749;28;20203;-73
2023/01/18 13:37:00;;;;;;;12.90;6.63;;;3.60;99.90;;;;;;5042080;28;20202;-76
2023/01/18 13:39:27;;;;;;;13.07;6.47;;;3.70;99.90;;;;;;5043195;28;20224;-73
2023/01/18 13:42:36;;;;;;;17.00;6.27;;;3.70;99.90;;;;;;5062805;28;20672;-76